Time;durP1;ratioP1;P1;durP2;ratioP2;P2;SDS_P1;SDS_P2;PMS_P1;PMS_P2;Temp;Humidity;BMP_temperature;BMP_pressure;BME280_temperature;BME280_humidity;BME280_pressure;Samples;Min_cycle;Max_cycle;Signal;HPM_P1;HPM_P2
2021/11/07 00:04:46;;;;;;;29.73;6.35;;;12.70;99.90;;;;;;5100578;28;20645;-69
2021/11/07 00:07:18;;;;;;;36.70;7.90;;;12.70;99.90;;;;;;5105698;28;20951;-70
2021/11/07 00:10:04;;;;;;;29.65;7.40;;;12.70;99.90;;;;;;5107432;28;20192;-70
2021/11/07 00:12:37;;;;;;;31.25;7.43;;;12.70;99.90;;;;;;5100978;28;20649;-69
2021/11/07 00:15:03;;;;;;;25.52;7.28;;;12.70;99.90;;;;;;5103383;28;20189;-69
2021/11/07 00:17:31;;;;;;;30.67;7.03;;;12.80;99.90;;;;;;5081935;28;20192;-69
2021/11/07 00:25:13;;;;;;;47.25;8.18;;;12.80;99.90;;;;;;5104426;28;20938;-71
2021/11/07 00:27:47;;;;;;;42.28;9.63;;;12.80;99.90;;;;;;5106068;28;20192;-70
2021/11/07 00:32:59;;;;;;;37.95;7.65;;;12.70;99.90;;;;;;5105355;28;20185;-69
2021/11/07 00:37:56;;;;;;;40.38;8.10;;;12.70;99.90;;;;;;5104256;28;20237;-70
2021/11/07 00:43:03;;;;;;;39.10;7.97;;;12.80;99.90;;;;;;5103109;28;20217;-69
2021/11/07 00:48:22;;;;;;;42.00;8.18;;;12.70;99.90;;;;;;5081889;28;20200;-71
2021/11/07 00:51:56;;;;;;;41.10;6.95;;;12.80;99.90;;;;;;5094388;28;20970;-72
2021/11/07 00:54:00;;;;;;;37.50;7.35;;;12.80;99.90;;;;;;5091740;28;20208;-69
2021/11/07 00:56:36;;;;;;;39.22;7.22;;;12.80;99.90;;;;;;5080895;28;20189;-73
2021/11/07 00:59:08;;;;;;;27.02;6.50;;;12.90;99.90;;;;;;5106804;28;20674;-71
2021/11/07 01:01:39;;;;;;;34.80;6.35;;;12.90;99.90;;;;;;5102767;28;20302;-71
2021/11/07 01:04:06;;;;;;;33.42;6.78;;;12.80;99.90;;;;;;5105369;28;20174;-70
2021/11/07 01:06:34;;;;;;;28.75;6.03;;;12.90;99.90;;;;;;5105641;28;20634;-71
2021/11/07 01:09:00;;;;;;;26.23;5.75;;;12.90;99.90;;;;;;5105393;28;20909;-72
2021/11/07 01:11:27;;;;;;;23.95;6.20;;;12.80;99.90;;;;;;5087917;28;20292;-71
2021/11/07 01:13:53;;;;;;;25.30;5.93;;;12.90;99.90;;;;;;5107030;28;20181;-69
2021/11/07 01:16:19;;;;;;;27.48;5.65;;;12.90;99.90;;;;;;5086642;28;20189;-72
2021/11/07 01:18:46;;;;;;;26.50;5.40;;;12.90;99.90;;;;;;5105941;28;20254;-71
2021/11/07 01:21:14;;;;;;;28.80;6.47;;;12.90;99.90;;;;;;5105029;28;20791;-72
2021/11/07 01:23:45;;;;;;;29.50;5.60;;;12.90;99.90;;;;;;5104648;28;20185;-72
2021/11/07 01:28:47;;;;;;;23.35;5.53;;;12.90;99.90;;;;;;5088250;28;20186;-71
2021/11/07 01:31:13;;;;;;;21.40;5.20;;;12.90;99.90;;;;;;5105751;28;20227;-70
2021/11/07 01:33:38;;;;;;;30.42;5.35;;;12.90;99.90;;;;;;5104854;28;20200;-70
2021/11/07 01:36:21;;;;;;;31.52;5.65;;;12.90;99.90;;;;;;5087610;28;20275;-71
2021/11/07 01:39:02;;;;;;;31.80;6.45;;;12.80;99.90;;;;;;5101645;28;20265;-71
2021/11/07 01:41:42;;;;;;;26.75;4.90;;;12.80;99.90;;;;;;5101794;28;20218;-70
2021/11/07 01:44:08;;;;;;;22.15;5.07;;;12.70;99.90;;;;;;5101024;28;20197;-71
2021/11/07 01:46:37;;;;;;;20.88;4.38;;;12.80;99.90;;;;;;5101255;28;20185;-71
2021/11/07 01:49:10;;;;;;;21.88;4.38;;;12.70;99.90;;;;;;5105193;28;20200;-70
2021/11/07 01:51:45;;;;;;;24.05;4.10;;;12.70;99.90;;;;;;5101991;28;20242;-71
2021/11/07 01:55:16;;;;;;;17.83;4.43;;;12.60;99.90;;;;;;5099928;28;20169;-71
2021/11/07 01:57:05;;;;;;;26.95;3.92;;;12.60;99.90;;;;;;5081947;28;20293;-71
2021/11/07 01:59:41;;;;;;;19.67;3.28;;;12.50;99.90;;;;;;5103258;28;20265;-71
2021/11/07 02:02:12;;;;;;;26.45;4.72;;;12.50;99.90;;;;;;5105732;28;20195;-71
2021/11/07 02:04:38;;;;;;;23.92;4.22;;;12.50;99.90;;;;;;5103062;28;20193;-72
2021/11/07 02:07:04;;;;;;;22.00;3.72;;;12.50;99.90;;;;;;5103763;28;20196;-70
2021/11/07 02:09:29;;;;;;;17.98;3.97;;;12.50;99.90;;;;;;5101541;28;20641;-71
2021/11/07 02:11:55;;;;;;;18.25;4.38;;;12.50;99.90;;;;;;5105373;28;20192;-72
2021/11/07 02:14:21;;;;;;;31.10;4.72;;;12.50;99.90;;;;;;5100610;28;20210;-73
2021/11/07 02:16:47;;;;;;;20.48;4.00;;;12.50;99.90;;;;;;5098515;28;20185;-71
2021/11/07 02:19:15;;;;;;;28.85;3.78;;;12.50;99.90;;;;;;5105139;28;20735;-71
2021/11/07 02:21:43;;;;;;;30.27;4.43;;;12.50;99.90;;;;;;5101100;28;20221;-71
2021/11/07 02:24:09;;;;;;;26.95;4.15;;;12.50;99.90;;;;;;5107363;28;20527;-72
2021/11/07 02:26:35;;;;;;;18.60;3.75;;;12.50;99.90;;;;;;5103692;28;20185;-71
2021/11/07 02:29:00;;;;;;;23.98;4.35;;;12.50;99.90;;;;;;5106509;28;20186;-72
2021/11/07 02:31:26;;;;;;;27.77;4.07;;;12.50;99.90;;;;;;5105756;28;20273;-71
2021/11/07 02:33:52;;;;;;;31.50;4.93;;;12.50;99.90;;;;;;5108465;28;20208;-70
2021/11/07 02:36:18;;;;;;;37.80;5.15;;;12.50;99.90;;;;;;5106510;28;20667;-71
2021/11/07 02:38:46;;;;;;;27.17;5.28;;;12.50;99.90;;;;;;5108748;28;20260;-72
2021/11/07 02:41:12;;;;;;;23.67;4.28;;;12.50;99.90;;;;;;5087324;28;20219;-71
2021/11/07 02:43:41;;;;;;;24.95;4.53;;;12.50;99.90;;;;;;5104601;28;20196;-72
2021/11/07 02:46:07;;;;;;;18.70;4.03;;;12.50;99.90;;;;;;5087762;28;20189;-72
2021/11/07 02:48:33;;;;;;;31.67;5.22;;;12.50;99.90;;;;;;5081645;28;20182;-71
2021/11/07 02:50:58;;;;;;;24.45;3.88;;;12.40;99.90;;;;;;5103771;28;20648;-72
2021/11/07 02:53:24;;;;;;;19.98;3.72;;;12.40;99.90;;;;;;5103120;28;20180;-71
2021/11/07 02:55:50;;;;;;;34.47;3.95;;;12.40;99.90;;;;;;5105790;28;20203;-71
2021/11/07 02:58:15;;;;;;;27.60;3.55;;;12.40;99.90;;;;;;5107276;28;20203;-71
2021/11/07 03:00:41;;;;;;;18.83;3.75;;;12.30;99.90;;;;;;5109032;28;20204;-71
2021/11/07 03:03:06;;;;;;;22.98;3.78;;;12.30;99.90;;;;;;5094842;28;20182;-72
2021/11/07 03:05:33;;;;;;;26.17;3.90;;;12.30;99.90;;;;;;5106740;28;20194;-71
2021/11/07 03:07:58;;;;;;;18.17;2.92;;;12.30;99.90;;;;;;5101508;28;20637;-71
2021/11/07 03:10:26;;;;;;;23.88;4.05;;;12.30;99.90;;;;;;5073090;28;20215;-70
2021/11/07 03:13:12;;;;;;;18.38;3.00;;;12.20;99.90;;;;;;5107480;28;20272;-70
2021/11/07 03:15:40;;;;;;;21.45;3.85;;;12.20;99.90;;;;;;5108663;28;20948;-71
2021/11/07 03:18:07;;;;;;;23.20;3.97;;;12.20;99.90;;;;;;5070713;28;20213;-72
2021/11/07 03:20:32;;;;;;;17.60;3.10;;;12.10;99.90;;;;;;5107161;28;20217;-71
2021/11/07 03:22:58;;;;;;;23.13;3.42;;;12.10;99.90;;;;;;5103605;28;20246;-72
2021/11/07 03:25:25;;;;;;;22.92;3.83;;;12.10;99.90;;;;;;5107346;28;20226;-70
2021/11/07 03:27:51;;;;;;;25.30;3.55;;;12.10;99.90;;;;;;5104588;28;20196;-72
2021/11/07 03:33:11;;;;;;;26.38;3.78;;;12.10;99.90;;;;;;5104521;28;20275;-72
2021/11/07 03:35:37;;;;;;;23.38;3.63;;;12.10;99.90;;;;;;5106884;28;20189;-71
2021/11/07 03:38:02;;;;;;;20.55;4.35;;;12.10;99.90;;;;;;5100602;28;20240;-72
2021/11/07 03:40:28;;;;;;;26.77;3.20;;;12.10;99.90;;;;;;5100163;28;20221;-71
2021/11/07 03:42:55;;;;;;;26.85;3.70;;;12.10;99.90;;;;;;5100104;28;20277;-71
2021/11/07 03:45:21;;;;;;;24.58;4.53;;;12.10;99.90;;;;;;5109486;28;20181;-71
2021/11/07 03:47:47;;;;;;;26.88;4.32;;;12.10;99.90;;;;;;5107549;28;20685;-71
2021/11/07 03:50:13;;;;;;;17.42;3.80;;;12.10;99.90;;;;;;5103614;28;20186;-71
2021/11/07 03:52:39;;;;;;;19.80;3.90;;;12.10;99.90;;;;;;5104947;28;20189;-70
2021/11/07 03:55:06;;;;;;;22.55;4.10;;;12.10;99.90;;;;;;5105307;28;20521;-71
2021/11/07 03:57:32;;;;;;;24.52;4.28;;;12.10;99.90;;;;;;5102273;28;20687;-71
2021/11/07 03:59:57;;;;;;;28.83;4.10;;;12.10;99.90;;;;;;5088696;28;20209;-70
2021/11/07 04:02:23;;;;;;;27.38;3.97;;;12.10;99.90;;;;;;5103895;28;20191;-71
2021/11/07 04:04:49;;;;;;;16.42;3.33;;;12.00;99.90;;;;;;5089061;28;20188;-70
2021/11/07 04:07:15;;;;;;;19.98;3.10;;;12.00;99.90;;;;;;5087556;28;20180;-70
2021/11/07 04:09:41;;;;;;;19.58;3.67;;;12.00;99.90;;;;;;5100822;28;20189;-71
2021/11/07 04:12:07;;;;;;;25.58;3.35;;;11.90;99.90;;;;;;5100745;28;20761;-70
2021/11/07 04:14:34;;;;;;;20.25;4.57;;;11.90;99.90;;;;;;5097973;28;20205;-72
2021/11/07 04:17:03;;;;;;;28.23;4.50;;;11.90;99.90;;;;;;5102120;28;20185;-70
2021/11/07 04:19:29;;;;;;;27.70;3.95;;;11.80;99.90;;;;;;5102875;28;20185;-71
2021/11/07 04:21:58;;;;;;;32.65;4.20;;;11.80;99.90;;;;;;5105358;28;20204;-71
2021/11/07 04:24:24;;;;;;;22.90;3.95;;;11.80;99.90;;;;;;5099357;28;20315;-70
2021/11/07 04:26:49;;;;;;;19.42;4.45;;;11.80;99.90;;;;;;5096521;28;20232;-70
2021/11/07 04:29:15;;;;;;;26.98;4.25;;;11.80;99.90;;;;;;5100334;28;20189;-70
2021/11/07 04:31:40;;;;;;;23.10;4.53;;;11.80;99.90;;;;;;5099631;28;20653;-70
2021/11/07 04:34:06;;;;;;;25.08;4.47;;;11.80;99.90;;;;;;5103636;28;20173;-71
2021/11/07 04:36:32;;;;;;;31.38;4.50;;;11.80;99.90;;;;;;5086530;28;20196;-72
2021/11/07 04:38:57;;;;;;;26.50;4.00;;;11.80;99.90;;;;;;5104896;28;20236;-71
2021/11/07 04:41:23;;;;;;;28.10;4.15;;;11.80;99.90;;;;;;5085736;28;20685;-70
2021/11/07 04:43:49;;;;;;;24.80;4.40;;;11.70;99.90;;;;;;5105861;28;20213;-72
2021/11/07 04:46:17;;;;;;;30.25;4.07;;;11.70;99.90;;;;;;5085018;28;20668;-72
2021/11/07 04:48:44;;;;;;;27.58;3.88;;;11.70;99.90;;;;;;5103118;28;20205;-70
2021/11/07 04:51:10;;;;;;;27.90;3.90;;;11.70;99.90;;;;;;5101552;28;21909;-70
2021/11/07 04:53:36;;;;;;;25.23;3.75;;;11.60;99.90;;;;;;5102119;28;20177;-71
2021/11/07 04:56:02;;;;;;;22.08;3.67;;;11.70;99.90;;;;;;5086256;28;20782;-71
2021/11/07 04:58:28;;;;;;;30.10;4.00;;;11.60;99.90;;;;;;5099916;28;20222;-70
2021/11/07 05:00:54;;;;;;;29.20;4.35;;;11.60;99.90;;;;;;5084234;28;20263;-71
2021/11/07 05:03:20;;;;;;;38.40;4.85;;;11.60;99.90;;;;;;5103289;28;20205;-70
2021/11/07 05:05:46;;;;;;;28.50;4.93;;;11.70;99.90;;;;;;5084817;28;20234;-70
2021/11/07 05:08:12;;;;;;;29.42;4.22;;;11.70;99.90;;;;;;5096882;28;20582;-70
2021/11/07 05:10:38;;;;;;;22.38;4.05;;;11.70;99.90;;;;;;5106207;28;20637;-71
2021/11/07 05:13:04;;;;;;;22.05;3.75;;;11.70;99.90;;;;;;5104044;28;20196;-71
2021/11/07 05:15:30;;;;;;;26.63;3.72;;;11.70;99.90;;;;;;5103679;28;20181;-71
2021/11/07 05:17:55;;;;;;;20.80;3.92;;;11.70;99.90;;;;;;5100028;28;20185;-70
2021/11/07 05:20:21;;;;;;;31.08;4.20;;;11.70;99.90;;;;;;5103063;28;20235;-70
2021/11/07 05:22:47;;;;;;;24.70;3.53;;;11.70;99.90;;;;;;5101124;28;20195;-71
2021/11/07 05:25:13;;;;;;;33.80;4.40;;;11.60;99.90;;;;;;5103908;28;20173;-70
2021/11/07 05:27:40;;;;;;;22.10;3.53;;;11.60;99.90;;;;;;5083285;28;20636;-71
2021/11/07 05:30:08;;;;;;;20.08;3.72;;;11.60;99.90;;;;;;5102162;28;20232;-71
2021/11/07 05:32:34;;;;;;;19.77;3.88;;;11.60;99.90;;;;;;5077541;28;20268;-70
2021/11/07 05:35:00;;;;;;;26.30;3.75;;;11.50;99.90;;;;;;5100218;28;20284;-72
2021/11/07 05:37:26;;;;;;;19.05;3.70;;;11.50;99.90;;;;;;5091062;28;20217;-72
2021/11/07 05:39:53;;;;;;;29.42;3.95;;;11.50;99.90;;;;;;5096475;28;20724;-72
2021/11/07 05:42:20;;;;;;;28.83;4.32;;;11.50;99.90;;;;;;5102529;28;20205;-70
2021/11/07 05:44:45;;;;;;;26.65;3.65;;;11.50;99.80;;;;;;5099529;28;20280;-70
2021/11/07 05:47:11;;;;;;;25.10;4.05;;;11.50;99.70;;;;;;5100963;28;20510;-71
2021/11/07 05:49:37;;;;;;;25.43;4.77;;;11.90;97.90;;;;;;5098528;28;20423;-71
2021/11/07 05:52:04;;;;;;;25.85;4.38;;;12.20;96.70;;;;;;5084291;28;20404;-71
2021/11/07 05:54:30;;;;;;;27.95;4.47;;;12.30;96.30;;;;;;5094193;28;20819;-72
2021/11/07 05:56:57;;;;;;;26.00;4.63;;;12.40;96.20;;;;;;5083100;28;20479;-71
2021/11/07 05:59:23;;;;;;;28.27;4.55;;;12.50;96.30;;;;;;5083194;28;20409;-72
2021/11/07 06:01:48;;;;;;;25.52;4.60;;;12.60;97.30;;;;;;5102475;28;20423;-70
2021/11/07 06:04:14;;;;;;;27.42;4.78;;;12.70;97.50;;;;;;5101363;28;20411;-73
2021/11/07 06:06:40;;;;;;;26.77;4.22;;;12.80;97.60;;;;;;5101750;28;20423;-75
2021/11/07 06:09:05;;;;;;;32.93;5.30;;;12.80;97.30;;;;;;5101410;28;20415;-73
2021/11/07 06:11:31;;;;;;;29.08;5.22;;;12.80;97.00;;;;;;5101753;28;20475;-73
2021/11/07 06:13:57;;;;;;;31.33;4.65;;;12.80;96.90;;;;;;5102920;28;20415;-73
2021/11/07 06:16:22;;;;;;;31.30;5.33;;;12.80;96.90;;;;;;5098070;28;20404;-69
2021/11/07 06:18:48;;;;;;;28.37;4.80;;;12.80;96.90;;;;;;5100730;28;20422;-72
2021/11/07 06:21:14;;;;;;;26.00;4.40;;;12.90;96.90;;;;;;5085504;28;20999;-71
2021/11/07 06:23:40;;;;;;;32.50;4.50;;;12.90;96.40;;;;;;5085547;28;20407;-72
2021/11/07 06:26:06;;;;;;;32.72;5.32;;;12.80;96.30;;;;;;5081755;28;20430;-74
2021/11/07 06:28:32;;;;;;;32.67;4.70;;;12.80;96.30;;;;;;5079934;28;20572;-73
2021/11/07 06:31:04;;;;;;;30.65;4.80;;;12.80;96.30;;;;;;5102752;28;20452;-72
2021/11/07 06:33:30;;;;;;;37.53;5.18;;;12.80;96.30;;;;;;5060861;28;20400;-72
2021/11/07 06:35:56;;;;;;;31.42;4.80;;;12.90;96.30;;;;;;5096823;28;20420;-73
2021/11/07 06:38:21;;;;;;;26.80;4.20;;;12.90;96.40;;;;;;5102897;28;20929;-73
2021/11/07 06:40:48;;;;;;;19.42;3.63;;;12.90;95.40;;;;;;5097282;28;20427;-72
2021/11/07 06:43:13;;;;;;;22.35;3.95;;;12.90;94.10;;;;;;5100004;28;20484;-73
2021/11/07 06:45:39;;;;;;;26.00;4.32;;;12.90;93.70;;;;;;5097923;28;20433;-72
2021/11/07 06:48:06;;;;;;;26.35;3.80;;;12.90;93.70;;;;;;5095609;28;20436;-72
2021/11/07 06:50:32;;;;;;;21.85;3.70;;;12.90;93.70;;;;;;5084315;28;20415;-72
2021/11/07 06:52:58;;;;;;;21.13;4.13;;;12.90;93.30;;;;;;5100261;28;20420;-73
2021/11/07 06:55:24;;;;;;;24.75;4.05;;;13.00;93.20;;;;;;5102792;28;20430;-72
2021/11/07 06:57:50;;;;;;;21.87;3.80;;;13.00;93.20;;;;;;5099007;28;20416;-73
2021/11/07 07:00:19;;;;;;;27.95;4.28;;;13.00;93.30;;;;;;5101288;28;20427;-73
2021/11/07 07:02:45;;;;;;;25.98;4.38;;;13.00;93.50;;;;;;5097603;28;20778;-73
2021/11/07 07:05:11;;;;;;;26.98;4.18;;;13.00;93.50;;;;;;5084430;28;20407;-73
2021/11/07 07:07:42;;;;;;;25.27;4.65;;;13.10;93.70;;;;;;5100813;28;20461;-72
2021/11/07 07:10:10;;;;;;;28.58;4.90;;;13.10;93.90;;;;;;5104259;28;20420;-72
2021/11/07 07:15:14;;;;;;;30.92;4.50;;;13.10;95.00;;;;;;5101629;28;20791;-72
2021/11/07 07:17:52;;;;;;;32.65;4.68;;;13.10;95.00;;;;;;5103011;28;20839;-74
2021/11/07 07:30:51;;;;;;;25.33;4.50;;;13.00;94.70;;;;;;5106599;28;20881;-71
2021/11/07 07:35:49;;;;;;;30.42;4.88;;;13.00;95.30;;;;;;5086982;28;20461;-74
2021/11/07 07:38:15;;;;;;;22.85;4.07;;;13.00;95.30;;;;;;5102740;28;20473;-73
2021/11/07 07:40:41;;;;;;;31.45;4.82;;;13.00;94.90;;;;;;5087222;28;20442;-72
2021/11/07 07:43:07;;;;;;;30.10;4.85;;;13.00;95.00;;;;;;5095716;28;20435;-72
2021/11/07 07:45:33;;;;;;;25.98;4.68;;;13.10;94.80;;;;;;5096384;28;20886;-72
2021/11/07 07:48:00;;;;;;;27.57;4.30;;;13.30;94.10;;;;;;5099239;28;20416;-73
2021/11/07 07:50:26;;;;;;;25.08;4.45;;;13.40;93.30;;;;;;5087962;28;20404;-75
2021/11/07 07:52:53;;;;;;;26.98;4.95;;;13.50;93.10;;;;;;5102241;28;20507;-72
2021/11/07 07:55:19;;;;;;;23.67;4.30;;;13.50;93.20;;;;;;5102573;28;20427;-73
2021/11/07 07:57:45;;;;;;;24.40;4.65;;;13.50;93.60;;;;;;5101789;28;20414;-72
2021/11/07 08:00:13;;;;;;;28.47;4.13;;;13.40;93.70;;;;;;5104158;28;20454;-72
2021/11/07 08:02:40;;;;;;;27.08;4.47;;;13.40;93.80;;;;;;5103823;28;20538;-74
2021/11/07 08:05:06;;;;;;;28.08;4.88;;;13.30;93.70;;;;;;5104832;28;20416;-74
2021/11/07 08:07:32;;;;;;;21.55;3.97;;;13.30;93.30;;;;;;5103819;28;20416;-74
2021/11/07 08:09:58;;;;;;;24.85;4.20;;;13.30;93.30;;;;;;5103166;28;20576;-73
2021/11/07 08:12:24;;;;;;;24.88;3.90;;;13.40;92.80;;;;;;5099761;27;20429;-76
2021/11/07 08:14:51;;;;;;;23.23;4.10;;;13.70;92.50;;;;;;5102678;28;20819;-74
2021/11/07 08:17:17;;;;;;;20.63;3.35;;;14.00;92.10;;;;;;5094568;28;20418;-73
2021/11/07 08:19:44;;;;;;;24.17;4.30;;;14.20;91.70;;;;;;5089179;28;20473;-75
2021/11/07 08:22:09;;;;;;;21.13;3.78;;;14.30;91.40;;;;;;5065290;28;20465;-74
2021/11/07 08:24:36;;;;;;;21.85;3.70;;;14.20;91.30;;;;;;5098522;28;20416;-74
2021/11/07 08:27:03;;;;;;;26.58;4.60;;;14.20;92.00;;;;;;5102493;28;20414;-71
2021/11/07 08:29:29;;;;;;;29.48;4.57;;;14.20;92.50;;;;;;5093162;28;20414;-74
2021/11/07 08:31:57;;;;;;;27.85;4.53;;;14.10;93.00;;;;;;5100503;28;20792;-71
2021/11/07 08:34:28;;;;;;;22.83;4.63;;;14.00;93.50;;;;;;5084710;28;20780;-74
2021/11/07 08:37:00;;;;;;;23.02;4.38;;;13.90;93.50;;;;;;5097773;28;20421;-76
2021/11/07 08:42:06;;;;;;;30.40;4.47;;;13.80;94.10;;;;;;5096822;28;20419;-75
2021/11/07 09:01:10;;;;;;;31.15;4.65;;;13.70;93.80;;;;;;5075043;28;20426;-77
2021/11/07 09:06:35;;;;;;;29.13;4.53;;;13.80;92.90;;;;;;5101613;28;20662;-75
2021/11/07 09:08:59;;;;;;;22.67;4.65;;;13.70;92.30;;;;;;5097937;28;20416;-75
2021/11/07 09:11:25;;;;;;;32.05;4.80;;;13.80;92.30;;;;;;5102182;28;20452;-74
2021/11/07 09:13:51;;;;;;;23.85;4.85;;;14.30;92.50;;;;;;5087215;28;20408;-75
2021/11/07 09:16:16;;;;;;;23.88;4.70;;;15.30;91.10;;;;;;5083319;28;20472;-77
2021/11/07 09:18:43;;;;;;;26.38;4.70;;;16.30;87.50;;;;;;5100152;28;20415;-75
2021/11/07 09:21:13;;;;;;;27.98;4.45;;;17.10;82.30;;;;;;5098533;28;20416;-74
2021/11/07 09:26:48;;;;;;;24.83;4.47;;;18.20;76.00;;;;;;5104067;28;20510;-72
2021/11/07 09:34:42;;;;;;;;;;;15.70;85.60;;;;;;5097556;28;19912;-73
2021/11/07 09:36:43;;;;;;;;;;;15.30;88.00;;;;;;5088839;28;19919;-72
2021/11/07 09:39:22;;;;;;;;;;;14.90;90.10;;;;;;5063959;28;19920;-74
2021/11/07 09:44:39;;;;;;;;;;;14.60;90.80;;;;;;5063829;28;19912;-73
2021/11/07 09:47:06;;;;;;;;;;;14.30;91.10;;;;;;5056086;28;20351;-73
2021/11/07 09:49:34;;;;;;;;;;;14.10;91.60;;;;;;5055232;28;20259;-73
2021/11/07 09:52:10;;;;;;;;;;;14.40;92.10;;;;;;5055554;28;19917;-73
2021/11/07 09:54:36;;;;;;;;;;;14.50;91.90;;;;;;5062430;28;20357;-72
2021/11/07 09:57:03;;;;;;;;;;;14.40;91.80;;;;;;5061275;28;19927;-74
2021/11/07 09:59:30;;;;;;;;;;;14.30;92.00;;;;;;5058815;28;19916;-74
2021/11/07 10:02:00;;;;;;;;;;;14.40;92.40;;;;;;5058588;28;20460;-72
2021/11/07 10:04:27;;;;;;;;;;;14.70;92.50;;;;;;5058691;28;19917;-73
2021/11/07 10:06:57;;;;;;;;;;;14.90;92.30;;;;;;5053938;28;19912;-74
2021/11/07 10:09:27;;;;;;;;;;;15.00;92.20;;;;;;5059964;28;19912;-73
2021/11/07 10:12:05;;;;;;;;;;;15.00;92.10;;;;;;5057549;28;19912;-74
2021/11/07 10:14:38;;;;;;;;;;;14.70;92.20;;;;;;5059021;28;19908;-75
2021/11/07 10:17:20;;;;;;;;;;;14.30;92.20;;;;;;5061551;28;19912;-73
2021/11/07 10:19:55;;;;;;;;;;;14.10;92.40;;;;;;5053260;28;19915;-73
2021/11/07 10:22:21;;;;;;;;;;;13.90;92.60;;;;;;5059034;28;19920;-74
2021/11/07 10:24:53;;;;;;;;;;;14.00;93.00;;;;;;5061566;28;19919;-74
2021/11/07 10:27:19;;;;;;;;;;;14.20;92.40;;;;;;5055914;28;19912;-71
2021/11/07 10:29:48;;;;;;;;;;;14.20;92.30;;;;;;5062158;28;19916;-73
2021/11/07 10:32:24;;;;;;;;;;;14.10;92.40;;;;;;5054144;28;19952;-74
2021/11/07 10:35:25;;;;;;;;;;;14.00;92.40;;;;;;5043538;28;20284;-73
2021/11/07 10:45:27;;;;;;;;;;;13.90;92.60;;;;;;5075495;28;19908;-75
2021/11/07 10:48:14;;;;;;;;;;;14.00;92.40;;;;;;5070854;28;19912;-74
2021/11/07 10:53:28;;;;;;;;;;;14.60;92.90;;;;;;5085967;28;20392;-75
2021/11/07 10:55:55;;;;;;;;;;;15.10;91.60;;;;;;5076787;28;19923;-73
2021/11/07 10:58:31;;;;;;;;;;;15.60;92.40;;;;;;5082906;28;19908;-74
2021/11/07 11:00:59;;;;;;;;;;;16.00;92.10;;;;;;5082520;28;20031;-73
2021/11/07 11:03:25;;;;;;;;;;;16.00;91.90;;;;;;5076549;28;20320;-74
2021/11/07 11:05:54;;;;;;;;;;;15.90;91.30;;;;;;5079367;28;19919;-75
2021/11/07 11:08:33;;;;;;;;;;;16.10;91.40;;;;;;5080029;28;19919;-74
2021/11/07 11:13:54;;;;;;;;;;;16.60;92.00;;;;;;5081818;28;19916;-75
2021/11/07 11:19:38;;;;;;;;;;;16.70;91.80;;;;;;5077059;28;20060;-76
2021/11/07 11:22:18;;;;;;;;;;;16.60;91.20;;;;;;5077407;28;20038;-75
2021/11/07 11:30:25;;;;;;;;;;;16.50;91.50;;;;;;5084350;28;19919;-75
2021/11/07 11:35:23;;;;;;;;;;;16.20;90.80;;;;;;5078262;28;20432;-75
2021/11/07 11:45:09;;;;;;;;;;;15.30;91.10;;;;;;5098798;28;19912;-74
2021/11/07 11:47:50;;;;;;;;;;;15.10;91.30;;;;;;5088101;28;19915;-74
2021/11/07 11:55:53;;;;;;;;;;;14.80;90.50;;;;;;5097190;28;19939;-74
2021/11/07 12:01:36;;;;;;;32.55;4.70;;;14.60;91.00;;;;;;5105767;28;20211;-72
2021/11/07 12:04:15;;;;;;;27.90;5.13;;;14.60;90.50;;;;;;5084489;28;20192;-75
2021/11/07 12:06:51;;;;;;;25.77;4.88;;;14.50;90.10;;;;;;5101211;28;20217;-73
2021/11/07 12:11:55;;;;;;;33.83;5.25;;;14.10;90.50;;;;;;5102901;28;20510;-73
2021/11/07 12:14:47;;;;;;;34.13;5.70;;;14.70;91.60;;;;;;5080189;28;20419;-74
2021/11/07 12:17:13;;;;;;;36.03;5.65;;;15.50;90.50;;;;;;5104569;28;20415;-74
2021/11/07 12:19:41;;;;;;;;;;;16.40;87.80;;;;;;5077494;28;20031;-76
2021/11/07 12:22:21;;;;;;;;;;;16.30;89.40;;;;;;5085720;28;19926;-75
2021/11/07 12:24:46;;;;;;;;;;;16.20;90.00;;;;;;5087925;28;19916;-75
2021/11/07 12:27:17;;;;;;;;;;;16.30;90.30;;;;;;5100585;28;20000;-74
2021/11/07 12:29:44;;;;;;;;;;;16.40;90.30;;;;;;5081046;28;19911;-75
2021/11/07 12:32:10;;;;;;;;;;;16.30;90.20;;;;;;5104554;28;21008;-74
2021/11/07 12:35:07;;;;;;;;;;;16.20;91.00;;;;;;5099988;28;20323;-73
2021/11/07 12:40:59;;;;;;;33.25;4.57;;;15.80;90.70;;;;;;5096278;28;20217;-73
2021/11/07 12:43:37;;;;;;;38.70;5.43;;;15.20;90.80;;;;;;5095450;28;20903;-73
2021/11/07 12:49:24;;;;;;;34.38;5.88;;;15.70;90.00;;;;;;5085720;28;20425;-74
2021/11/07 12:52:06;;;;;;;30.02;6.00;;;15.80;90.00;;;;;;5091706;28;20905;-72
2021/11/07 12:54:32;;;;;;;35.03;6.05;;;15.90;87.50;;;;;;5079846;28;20422;-73
2021/11/07 12:57:05;;;;;;;30.02;4.55;;;15.80;86.20;;;;;;5095136;28;20425;-73
2021/11/07 12:59:45;;;;;;;19.08;3.42;;;15.80;87.20;;;;;;5056047;28;20904;-73
2021/11/07 13:02:16;;;;;;;20.00;3.65;;;15.60;86.40;;;;;;5098670;28;20457;-73
2021/11/07 13:04:46;;;;;;;27.17;4.32;;;15.40;87.80;;;;;;5101200;28;20419;-73
2021/11/07 13:07:19;;;;;;;26.20;4.55;;;15.40;90.40;;;;;;5095103;28;20443;-72
2021/11/07 13:09:54;;;;;;;28.95;4.80;;;15.50;90.20;;;;;;5105151;28;20405;-73
2021/11/07 13:12:27;;;;;;;28.30;5.22;;;15.50;90.30;;;;;;5097788;28;20399;-72
2021/11/07 13:18:12;;;;;;;;;;;;;;;;;;;;;
2021/11/07 13:20:40;;;;;;;31.63;5.50;;;15.20;87.60;;;;;;5103740;28;20905;-73
2021/11/07 13:23:27;;;;;;;30.83;5.20;;;15.10;87.50;;;;;;5100110;28;20753;-72
2021/11/07 13:31:21;;;;;;;26.15;4.53;;;14.90;87.80;;;;;;5100503;28;20406;-72
2021/11/07 13:33:48;;;;;;;22.23;4.20;;;14.70;89.70;;;;;;5077713;28;21000;-72
2021/11/07 13:36:17;;;;;;;21.45;3.40;;;14.60;90.50;;;;;;5082138;28;20410;-73
2021/11/07 13:38:59;;;;;;;26.13;4.27;;;14.40;90.90;;;;;;5101503;28;20936;-72
2021/11/07 13:41:27;;;;;;;24.05;4.65;;;14.20;92.30;;;;;;5091365;28;20514;-71
2021/11/07 13:44:01;;;;;;;26.65;5.55;;;14.10;92.60;;;;;;5083738;28;20405;-71
2021/11/07 13:46:27;;;;;;;24.30;4.53;;;13.80;92.80;;;;;;5100838;28;22136;-72
2021/11/07 13:49:02;;;;;;;19.65;3.20;;;13.70;93.70;;;;;;5091389;28;20182;-72
2021/11/07 13:51:33;;;;;;;22.90;3.88;;;13.10;94.40;;;;;;5086388;28;20189;-72
2021/11/07 13:54:02;;;;;;;27.23;4.05;;;12.70;95.10;;;;;;5105290;28;20457;-71
2021/11/07 13:56:29;;;;;;;23.27;3.85;;;13.10;95.50;;;;;;5069466;28;20412;-72
2021/11/07 13:58:54;;;;;;;24.47;3.70;;;13.30;94.80;;;;;;5086399;28;20872;-72
2021/11/07 14:01:20;;;;;;;27.20;4.07;;;13.40;94.90;;;;;;5078279;28;20411;-72
2021/11/07 14:03:53;;;;;;;22.90;4.47;;;13.40;95.10;;;;;;5103524;28;20898;-71
2021/11/07 14:06:38;;;;;;;28.83;4.90;;;13.60;94.80;;;;;;5081877;28;20428;-72
2021/11/07 14:09:05;;;;;;;32.42;4.70;;;13.50;94.20;;;;;;5101136;28;20396;-72
2021/11/07 14:11:33;;;;;;;27.27;4.68;;;13.50;94.40;;;;;;5100752;28;20431;-71
2021/11/07 14:14:08;;;;;;;21.30;3.95;;;13.40;94.80;;;;;;5103786;28;20415;-71
2021/11/07 14:16:42;;;;;;;17.15;2.92;;;13.30;94.30;;;;;;5098977;28;20897;-72
2021/11/07 14:19:11;;;;;;;20.15;2.95;;;13.30;93.30;;;;;;5079913;28;20416;-71
2021/11/07 14:21:41;;;;;;;18.10;3.10;;;13.30;92.90;;;;;;5088345;28;20451;-71
2021/11/07 14:24:15;;;;;;;27.87;4.07;;;13.30;92.70;;;;;;5101712;28;20411;-73
2021/11/07 14:26:50;;;;;;;30.20;4.63;;;13.30;93.10;;;;;;5065717;28;20417;-71
2021/11/07 14:29:23;;;;;;;31.05;4.85;;;13.50;94.30;;;;;;5101984;28;21609;-72
2021/11/07 14:32:12;;;;;;;38.17;5.28;;;13.70;94.40;;;;;;5085336;28;20415;-72
2021/11/07 14:35:24;;;;;;;43.72;6.20;;;13.80;94.20;;;;;;5079561;28;20439;-71
2021/11/07 14:42:50;;;;;;;28.83;5.50;;;14.00;91.90;;;;;;5106067;28;20877;-72
2021/11/07 14:48:10;;;;;;;30.85;5.25;;;14.10;92.10;;;;;;5100188;28;20489;-72
2021/11/07 14:53:10;;;;;;;26.85;4.70;;;13.90;90.80;;;;;;5101325;28;20402;-72
2021/11/07 14:55:44;;;;;;;29.85;5.00;;;13.90;90.60;;;;;;5086395;28;20772;-71
2021/11/07 14:58:30;;;;;;;27.00;4.88;;;13.90;90.20;;;;;;5086766;28;20419;-73
2021/11/07 15:03:48;;;;;;;35.40;5.40;;;13.80;90.70;;;;;;5106253;28;20403;-72
2021/11/07 15:08:55;;;;;;;33.95;5.35;;;13.70;90.80;;;;;;5108360;28;20431;-72
2021/11/07 15:16:28;;;;;;;32.30;5.13;;;13.70;90.90;;;;;;5104856;28;20446;-71
2021/11/07 15:19:03;;;;;;;28.35;4.88;;;13.60;91.10;;;;;;5101273;28;20409;-72
2021/11/07 15:24:11;;;;;;;26.02;4.57;;;13.60;91.00;;;;;;5100820;28;20429;-72
2021/11/07 15:26:46;;;;;;;29.80;4.93;;;13.50;90.80;;;;;;5088702;28;20418;-73
2021/11/07 15:29:22;;;;;;;29.05;4.35;;;13.50;91.50;;;;;;5077010;28;20433;-73
2021/11/07 15:32:11;;;;;;;30.00;4.90;;;13.40;92.00;;;;;;5097813;28;20529;-73
2021/11/07 15:34:40;;;;;;;32.33;5.68;;;13.40;92.30;;;;;;5082150;28;20421;-71
2021/11/07 15:37:10;;;;;;;36.60;5.68;;;13.30;92.60;;;;;;5103070;28;20412;-72
2021/11/07 15:39:46;;;;;;;32.70;5.63;;;13.40;92.80;;;;;;5086886;28;20408;-72